Time;durP1;ratioP1;P1;durP2;ratioP2;P2;SDS_P1;SDS_P2;PMS_P1;PMS_P2;Temp;Humidity;BMP_temperature;BMP_pressure;BME280_temperature;BME280_humidity;BME280_pressure;Samples;Min_cycle;Max_cycle;Signal;HPM_P1;HPM_P2
2021/09/10 00:02:05;;;;;;;10.60;9.50;;;;;;;;;;5031621;28;20103;-71
2021/09/10 00:04:33;;;;;;;12.10;9.60;;;;;;;;;;5031860;28;20054;-71
2021/09/10 00:06:59;;;;;;;12.48;9.85;;;;;;;;;;5024472;28;20497;-71
2021/09/10 00:09:26;;;;;;;16.38;9.73;;;;;;;;;;5011878;28;20046;-71
2021/09/10 00:11:52;;;;;;;14.07;9.75;;;;;;;;;;4994343;28;20058;-71
2021/09/10 00:14:19;;;;;;;13.27;10.13;;;;;;;;;;5011982;28;20181;-71
2021/09/10 00:16:46;;;;;;;13.00;9.38;;;;;;;;;;5011720;28;20429;-71
2021/09/10 00:19:12;;;;;;;12.13;9.68;;;;;;;;;;5012058;28;20127;-71
2021/09/10 00:21:39;;;;;;;15.07;10.30;;;;;;;;;;4994510;28;20571;-71
2021/09/10 00:24:09;;;;;;;18.75;10.45;;;;;;;;;;5011794;28;20075;-71
2021/09/10 00:26:35;;;;;;;14.07;9.77;;;;;;;;;;5011809;28;20049;-71
2021/09/10 00:29:02;;;;;;;12.18;9.73;;;;;;;;;;5011541;28;20476;-71
2021/09/10 00:31:29;;;;;;;11.73;9.75;;;;;;;;;;4994706;28;20104;-71
2021/09/10 00:33:59;;;;;;;12.52;10.48;;;;;;;;;;5011696;28;20084;-71
2021/09/10 00:36:25;;;;;;;15.10;10.50;;;;;;;;;;5026241;28;20053;-71
2021/09/10 00:38:52;;;;;;;16.08;11.23;;;;;;;;;;5031293;28;20543;-71
2021/09/10 00:41:19;;;;;;;13.45;10.05;;;;;;;;;;5031459;28;20045;-71
2021/09/10 00:43:45;;;;;;;12.30;9.48;;;;;;;;;;5013671;28;20053;-71
2021/09/10 00:46:12;;;;;;;12.15;9.43;;;;;;;;;;5031312;28;20069;-71
2021/09/10 00:48:41;;;;;;;13.32;9.85;;;;;;;;;;4997482;28;20124;-71
2021/09/10 00:51:08;;;;;;;11.20;10.00;;;;;;;;;;5031182;28;20049;-71
2021/09/10 00:53:35;;;;;;;12.55;9.65;;;;;;;;;;5013673;28;20401;-71
2021/09/10 00:56:01;;;;;;;15.63;10.23;;;;;;;;;;5031186;28;20057;-71
2021/09/10 00:58:28;;;;;;;10.70;9.52;;;;;;;;;;5031256;28;20114;-71
2021/09/10 01:00:55;;;;;;;12.75;9.88;;;;;;;;;;5031090;28;20107;-71
2021/09/10 01:03:21;;;;;;;12.88;9.88;;;;;;;;;;5028721;28;20077;-71
2021/09/10 01:05:48;;;;;;;10.55;9.43;;;;;;;;;;4994049;28;20061;-71
2021/09/10 01:08:15;;;;;;;15.00;9.77;;;;;;;;;;4994080;28;20393;-71
2021/09/10 01:10:49;;;;;;;12.73;9.35;;;;;;;;;;4993965;28;20053;-71
2021/09/10 01:13:33;;;;;;;10.55;9.13;;;;;;;;;;4996818;28;20041;-71
2021/09/10 01:16:01;;;;;;;13.90;10.15;;;;;;;;;;4994054;28;20061;-71
2021/09/10 01:18:27;;;;;;;11.75;9.07;;;;;;;;;;4993874;28;20140;-71
2021/09/10 01:20:54;;;;;;;11.30;9.65;;;;;;;;;;5033683;28;20076;-71
2021/09/10 01:23:21;;;;;;;11.40;9.95;;;;;;;;;;5034469;28;20137;-71
2021/09/10 01:25:47;;;;;;;12.93;10.55;;;;;;;;;;5034029;28;20136;-71
2021/09/10 01:28:15;;;;;;;17.50;9.90;;;;;;;;;;5034373;28;20045;-71
2021/09/10 01:30:42;;;;;;;15.30;10.10;;;;;;;;;;5029486;28;20077;-71
2021/09/10 01:33:10;;;;;;;12.05;9.25;;;;;;;;;;5014489;28;20054;-71
2021/09/10 01:35:37;;;;;;;10.65;9.52;;;;;;;;;;5014760;28;20053;-71
2021/09/10 01:38:04;;;;;;;11.65;9.30;;;;;;;;;;4997102;28;20046;-71
2021/09/10 01:40:31;;;;;;;12.52;10.38;;;;;;;;;;4980994;28;20137;-71
2021/09/10 01:42:58;;;;;;;10.02;9.02;;;;;;;;;;5014167;28;20053;-71
2021/09/10 01:45:25;;;;;;;14.45;9.77;;;;;;;;;;5015592;28;20137;-71
2021/09/10 01:47:51;;;;;;;11.50;9.82;;;;;;;;;;5014051;28;20133;-71
2021/09/10 01:50:20;;;;;;;12.68;10.50;;;;;;;;;;5014394;28;20137;-71
2021/09/10 01:52:47;;;;;;;10.73;9.18;;;;;;;;;;4996565;28;20144;-71
2021/09/10 01:55:14;;;;;;;12.50;9.55;;;;;;;;;;5014246;28;20049;-71
2021/09/10 01:57:44;;;;;;;11.63;9.25;;;;;;;;;;4996703;28;20085;-71
2021/09/10 02:00:11;;;;;;;10.65;9.32;;;;;;;;;;4997108;28;20141;-71
2021/09/10 02:02:39;;;;;;;13.15;9.70;;;;;;;;;;5013824;28;20141;-71
2021/09/10 02:05:09;;;;;;;11.55;9.70;;;;;;;;;;5014192;28;20133;-71
2021/09/10 02:07:36;;;;;;;12.73;9.43;;;;;;;;;;5013935;28;20145;-71
2021/09/10 02:10:08;;;;;;;10.57;9.52;;;;;;;;;;5013877;28;20053;-71
2021/09/10 02:12:35;;;;;;;10.95;9.70;;;;;;;;;;5030463;28;20128;-71
2021/09/10 02:15:03;;;;;;;13.63;9.48;;;;;;;;;;5033581;28;20567;-71
2021/09/10 02:17:30;;;;;;;11.63;10.25;;;;;;;;;;5033604;28;20124;-71
2021/09/10 02:19:57;;;;;;;12.05;9.82;;;;;;;;;;5033498;28;20085;-71
2021/09/10 02:22:24;;;;;;;11.30;9.18;;;;;;;;;;5033184;28;20571;-71
2021/09/10 02:24:50;;;;;;;11.23;9.23;;;;;;;;;;5027209;28;20092;-71
2021/09/10 02:27:17;;;;;;;12.27;9.35;;;;;;;;;;5013636;28;20128;-71
2021/09/10 02:29:44;;;;;;;11.98;9.40;;;;;;;;;;4996132;28;20077;-71
2021/09/10 02:32:11;;;;;;;12.30;9.63;;;;;;;;;;5013287;28;20471;-71
2021/09/10 02:34:37;;;;;;;11.68;9.18;;;;;;;;;;5030508;28;20136;-71
2021/09/10 02:37:04;;;;;;;11.27;8.70;;;;;;;;;;5033129;28;20085;-70
2021/09/10 02:39:31;;;;;;;10.75;9.30;;;;;;;;;;5033231;28;20121;-71
2021/09/10 02:41:58;;;;;;;11.23;9.20;;;;;;;;;;5033010;28;20077;-71
2021/09/10 02:44:25;;;;;;;10.30;9.07;;;;;;;;;;5015652;28;20128;-71
2021/09/10 02:46:53;;;;;;;10.02;8.60;;;;;;;;;;5029074;28;20108;-71
2021/09/10 02:49:21;;;;;;;10.55;8.70;;;;;;;;;;5013247;28;20078;-71
2021/09/10 02:51:48;;;;;;;9.32;8.43;;;;;;;;;;5012903;28;20078;-71
2021/09/10 02:54:14;;;;;;;11.73;9.65;;;;;;;;;;4995713;28;20085;-71
2021/09/10 02:56:41;;;;;;;10.55;9.45;;;;;;;;;;5012983;28;20049;-71
2021/09/10 02:59:08;;;;;;;10.90;9.05;;;;;;;;;;4995713;28;20129;-71
2021/09/10 03:01:34;;;;;;;10.88;9.25;;;;;;;;;;5007552;28;20501;-71
2021/09/10 03:04:02;;;;;;;11.98;9.48;;;;;;;;;;5032714;28;20076;-71
2021/09/10 03:06:28;;;;;;;10.05;9.05;;;;;;;;;;5032818;28;20100;-71
2021/09/10 03:08:55;;;;;;;11.23;8.43;;;;;;;;;;5032773;28;20467;-71
2021/09/10 03:11:21;;;;;;;11.18;9.50;;;;;;;;;;5032689;28;20049;-71
2021/09/10 03:13:48;;;;;;;10.02;8.80;;;;;;;;;;5028211;28;20046;-71
2021/09/10 03:16:14;;;;;;;11.68;9.10;;;;;;;;;;5012800;28;20061;-71
2021/09/10 03:18:41;;;;;;;14.45;9.02;;;;;;;;;;5012839;28;20480;-71
2021/09/10 03:21:08;;;;;;;10.15;9.10;;;;;;;;;;5012971;28;20085;-70
2021/09/10 03:23:34;;;;;;;12.85;9.05;;;;;;;;;;5012465;28;20058;-71
2021/09/10 03:26:01;;;;;;;9.93;9.02;;;;;;;;;;5012501;28;20401;-71
2021/09/10 03:28:28;;;;;;;14.20;9.48;;;;;;;;;;5023619;28;20049;-71
2021/09/10 03:30:54;;;;;;;10.73;9.48;;;;;;;;;;5014863;28;20050;-71
2021/09/10 03:33:21;;;;;;;12.40;9.65;;;;;;;;;;5014608;28;20111;-71
2021/09/10 03:35:50;;;;;;;11.05;8.95;;;;;;;;;;5014510;28;20075;-71
2021/09/10 03:38:17;;;;;;;11.02;8.50;;;;;;;;;;5032022;28;20558;-71
2021/09/10 03:40:43;;;;;;;12.85;10.07;;;;;;;;;;5028650;28;20441;-71
2021/09/10 03:43:10;;;;;;;11.48;9.07;;;;;;;;;;5011644;28;20084;-71
2021/09/10 03:45:36;;;;;;;10.93;9.43;;;;;;;;;;4994855;28;20104;-71
2021/09/10 03:48:03;;;;;;;13.32;9.65;;;;;;;;;;5011991;28;20562;-71
2021/09/10 03:50:30;;;;;;;16.00;10.13;;;;;;;;;;5012379;28;20181;-71
2021/09/10 03:52:57;;;;;;;12.63;9.63;;;;;;;;;;5012008;28;20574;-71
2021/09/10 03:55:23;;;;;;;14.32;11.07;;;;;;;;;;5005543;28;20060;-71
2021/09/10 03:57:50;;;;;;;11.90;10.15;;;;;;;;;;5031808;28;20103;-71
2021/09/10 04:00:17;;;;;;;13.18;9.80;;;;;;;;;;5031849;28;20095;-71
2021/09/10 04:02:43;;;;;;;11.38;9.93;;;;;;;;;;5014118;28;20475;-71
2021/09/10 04:05:11;;;;;;;11.43;9.95;;;;;;;;;;5014339;28;20132;-71
2021/09/10 04:07:38;;;;;;;12.27;10.05;;;;;;;;;;5014182;28;20049;-71
2021/09/10 04:10:05;;;;;;;13.15;9.80;;;;;;;;;;5014324;28;20135;-71
2021/09/10 04:12:31;;;;;;;11.93;9.38;;;;;;;;;;5031585;28;20057;-71
2021/09/10 04:14:58;;;;;;;13.88;9.90;;;;;;;;;;5014124;28;20133;-71
2021/09/10 04:17:25;;;;;;;14.02;10.02;;;;;;;;;;5014216;28;20574;-71
2021/09/10 04:19:51;;;;;;;12.63;10.07;;;;;;;;;;5031486;28;20096;-71
2021/09/10 04:22:19;;;;;;;11.07;9.98;;;;;;;;;;5027445;28;20046;-71
2021/09/10 04:24:46;;;;;;;11.55;9.80;;;;;;;;;;5020269;28;20049;-71
2021/09/10 04:27:12;;;;;;;11.02;9.43;;;;;;;;;;5031597;28;20045;-71
2021/09/10 04:29:39;;;;;;;11.50;10.13;;;;;;;;;;5029490;28;20045;-71
2021/09/10 04:32:06;;;;;;;10.00;8.80;;;;;;;;;;5030807;28;20056;-72
2021/09/10 04:34:32;;;;;;;10.18;9.15;;;;;;;;;;5019657;28;20104;-71
2021/09/10 04:37:00;;;;;;;12.88;9.63;;;;;;;;;;5013729;28;20057;-72
2021/09/10 04:39:27;;;;;;;11.10;9.85;;;;;;;;;;5014183;28;20061;-72
2021/09/10 04:41:54;;;;;;;12.88;9.20;;;;;;;;;;5031273;28;20057;-71
2021/09/10 04:44:20;;;;;;;14.07;9.75;;;;;;;;;;5031329;28;20050;-71
2021/09/10 04:46:47;;;;;;;12.27;9.90;;;;;;;;;;5031298;28;20535;-71
2021/09/10 04:49:14;;;;;;;11.52;10.35;;;;;;;;;;5013736;28;20054;-71
2021/09/10 04:51:40;;;;;;;11.52;9.80;;;;;;;;;;5031267;28;20092;-71
2021/09/10 04:54:07;;;;;;;13.23;9.65;;;;;;;;;;5031152;28;20054;-71
2021/09/10 04:56:34;;;;;;;11.52;10.32;;;;;;;;;;5034966;28;20049;-70
2021/09/10 04:59:02;;;;;;;11.52;9.68;;;;;;;;;;5034902;28;20120;-70
2021/09/10 05:01:30;;;;;;;13.77;10.73;;;;;;;;;;5035047;28;20057;-70
2021/09/10 05:03:57;;;;;;;10.88;9.60;;;;;;;;;;5034005;28;20052;-70
2021/09/10 05:06:25;;;;;;;12.20;9.75;;;;;;;;;;5034790;28;20095;-71
2021/09/10 05:08:51;;;;;;;12.27;10.57;;;;;;;;;;5034711;28;20049;-70
2021/09/10 05:11:18;;;;;;;11.15;9.32;;;;;;;;;;5035040;28;20057;-70
2021/09/10 05:13:44;;;;;;;12.35;9.75;;;;;;;;;;5034780;28;20056;-70
2021/09/10 05:16:11;;;;;;;12.40;10.10;;;;;;;;;;5034861;28;20492;-71
2021/09/10 05:18:38;;;;;;;13.07;10.35;;;;;;;;;;5034475;28;20307;-71
2021/09/10 05:21:05;;;;;;;14.52;10.07;;;;;;;;;;5029925;28;20049;-70
2021/09/10 05:23:32;;;;;;;13.45;10.40;;;;;;;;;;5034036;28;20056;-70
2021/09/10 05:25:59;;;;;;;13.60;10.32;;;;;;;;;;5016975;28;20049;-70
2021/09/10 05:28:26;;;;;;;13.20;10.27;;;;;;;;;;5016402;28;20463;-71
2021/09/10 05:30:53;;;;;;;12.02;9.93;;;;;;;;;;5016883;28;20056;-71
2021/09/10 05:33:20;;;;;;;22.17;11.27;;;;;;;;;;5016114;28;20045;-71
2021/09/10 05:35:46;;;;;;;13.75;10.40;;;;;;;;;;5016542;28;20053;-71
2021/09/10 05:38:13;;;;;;;21.10;10.82;;;;;;;;;;5016657;28;20072;-71
2021/09/10 05:40:40;;;;;;;14.15;9.73;;;;;;;;;;5034530;28;20103;-71
2021/09/10 05:43:06;;;;;;;12.70;9.45;;;;;;;;;;5034111;28;20492;-71
2021/09/10 05:45:33;;;;;;;14.43;9.75;;;;;;;;;;5034184;28;20471;-71
2021/09/10 05:48:00;;;;;;;18.73;10.90;;;;;;;;;;5033950;28;20117;-71
2021/09/10 05:50:26;;;;;;;10.35;9.02;;;;;;;;;;5028111;28;20097;-71
2021/09/10 05:52:53;;;;;;;11.45;10.05;;;;;;;;;;5027057;28;20499;-70
2021/09/10 05:55:20;;;;;;;11.68;10.05;;;;;;;;;;5034055;28;20049;-70
2021/09/10 05:57:46;;;;;;;14.75;10.85;;;;;;;;;;5014183;28;20057;-70
2021/09/10 06:00:13;;;;;;;12.40;10.55;;;;;;;;;;5014139;28;20041;-71
2021/09/10 06:02:40;;;;;;;13.05;9.10;;;;;;;;;;5013588;28;20054;-73
2021/09/10 06:05:07;;;;;;;14.82;10.60;;;;;;;;;;5012519;28;20050;-71
2021/09/10 06:07:34;;;;;;;13.73;10.82;;;;;;;;;;5014527;28;20054;-71
2021/09/10 06:10:01;;;;;;;14.23;10.07;;;;;;;;;;5033768;28;20046;-71
2021/09/10 06:12:27;;;;;;;18.85;10.48;;;;;;;;;;5005367;28;20053;-71
2021/09/10 06:14:54;;;;;;;11.90;9.68;;;;;;;;;;5013965;28;20108;-72
2021/09/10 06:17:21;;;;;;;11.68;10.48;;;;;;;;;;4996587;28;20496;-71
2021/09/10 06:19:51;;;;;;;14.40;10.40;;;;;;;;;;5019855;28;20133;-72
2021/09/10 06:22:18;;;;;;;12.05;9.30;;;;;;;;;;5011735;28;20053;-72
2021/09/10 06:24:45;;;;;;;13.00;10.57;;;;;;;;;;5012001;28;20136;-72
2021/09/10 06:27:11;;;;;;;12.27;10.20;;;;;;;;;;5013173;28;20107;-72
2021/09/10 06:29:38;;;;;;;17.00;10.40;;;;;;;;;;5025150;28;20523;-71
2021/09/10 06:32:05;;;;;;;11.80;9.43;;;;;;;;;;5031045;28;20050;-72
2021/09/10 06:34:31;;;;;;;14.27;10.25;;;;;;;;;;5031267;28;20049;-72
2021/09/10 06:36:58;;;;;;;14.77;9.65;;;;;;;;;;5013595;28;20119;-72
2021/09/10 06:39:25;;;;;;;11.30;10.18;;;;;;;;;;5031165;28;20356;-72
2021/09/10 06:41:52;;;;;;;12.48;9.50;;;;;;;;;;5030990;28;20128;-71
2021/09/10 06:44:18;;;;;;;16.70;10.45;;;;;;;;;;5031194;28;20057;-72
2021/09/10 06:46:45;;;;;;;10.80;9.65;;;;;;;;;;5030061;28;20508;-72
2021/09/10 06:49:11;;;;;;;12.23;10.10;;;;;;;;;;5031166;28;20377;-71
2021/09/10 06:51:38;;;;;;;11.93;10.45;;;;;;;;;;5030825;28;20049;-72
2021/09/10 06:54:05;;;;;;;13.20;11.63;;;;;;;;;;5030844;28;20057;-71
2021/09/10 06:56:31;;;;;;;14.88;12.43;;;;;;;;;;5030712;28;20045;-71
2021/09/10 06:58:58;;;;;;;12.77;11.30;;;;;;;;;;5030549;28;20403;-72
2021/09/10 07:01:25;;;;;;;17.95;11.02;;;;;;;;;;5030711;28;20080;-72
2021/09/10 07:03:52;;;;;;;13.18;10.52;;;;;;;;;;5030461;28;20491;-72
2021/09/10 07:06:20;;;;;;;13.32;10.88;;;;;;;;;;4997029;28;20072;-72
2021/09/10 07:08:47;;;;;;;12.43;10.00;;;;;;;;;;5030810;28;20107;-71
2021/09/10 07:11:13;;;;;;;14.98;10.75;;;;;;;;;;5030752;28;20131;-71
2021/09/10 07:13:41;;;;;;;9.43;8.43;;;;;;;;;;5029743;28;20045;-71
2021/09/10 07:16:08;;;;;;;9.75;8.60;;;;;;;;;;5030554;28;20123;-72
2021/09/10 07:18:34;;;;;;;12.60;8.60;;;;;;;;;;5029030;28;20076;-72
2021/09/10 07:21:03;;;;;;;11.68;8.35;;;;;;;;;;5024077;28;20123;-71
2021/09/10 07:23:33;;;;;;;10.23;7.50;;;;;;;;;;5023265;28;20057;-71
2021/09/10 07:26:05;;;;;;;11.50;7.57;;;;;;;;;;5020242;28;20061;-70
2021/09/10 07:28:34;;;;;;;8.48;7.57;;;;;;;;;;5018174;28;20376;-70
2021/09/10 07:31:03;;;;;;;9.27;7.63;;;;;;;;;;5018821;28;20104;-71
2021/09/10 07:33:31;;;;;;;11.32;7.22;;;;;;;;;;5005540;28;20054;-71
2021/09/10 07:35:58;;;;;;;8.25;7.45;;;;;;;;;;5017682;28;20053;-71
2021/09/10 07:38:28;;;;;;;11.57;7.55;;;;;;;;;;5020469;28;20053;-72
2021/09/10 07:40:55;;;;;;;7.85;6.60;;;;;;;;;;5015044;28;20049;-73
2021/09/10 07:43:21;;;;;;;8.27;7.07;;;;;;;;;;5022382;28;20049;-70
2021/09/10 07:45:48;;;;;;;8.68;7.53;;;;;;;;;;5020500;28;20097;-70
2021/09/10 07:48:14;;;;;;;7.60;6.75;;;;;;;;;;5022663;28;20556;-68
2021/09/10 07:50:41;;;;;;;8.10;6.88;;;;;;;;;;5022630;28;20045;-70
2021/09/10 07:53:08;;;;;;;10.68;6.60;;;;;;;;;;5017782;28;20049;-73
2021/09/10 07:55:34;;;;;;;7.97;7.18;;;;;;;;;;5017543;28;20491;-73
2021/09/10 07:58:01;;;;;;;7.22;6.53;;;;;;;;;;5014603;28;20050;-73
2021/09/10 08:00:27;;;;;;;9.98;6.82;;;;;;;;;;5016443;28;20053;-73
2021/09/10 08:02:54;;;;;;;7.15;6.47;;;;;;;;;;5015208;28;20064;-73
2021/09/10 08:05:21;;;;;;;9.65;6.63;;;;;;;;;;5018147;28;20045;-73
2021/09/10 08:07:48;;;;;;;9.00;7.57;;;;;;;;;;5014741;28;20050;-73
2021/09/10 08:10:16;;;;;;;8.40;7.07;;;;;;;;;;5000773;28;20076;-73
2021/09/10 08:12:44;;;;;;;6.78;6.18;;;;;;;;;;5016880;28;20053;-74
2021/09/10 08:15:12;;;;;;;7.82;6.45;;;;;;;;;;4982308;28;20049;-73
2021/09/10 08:17:39;;;;;;;8.60;6.88;;;;;;;;;;5017985;28;20566;-73
2021/09/10 08:20:07;;;;;;;8.45;6.32;;;;;;;;;;5021175;28;20494;-73
2021/09/10 08:22:35;;;;;;;7.50;6.10;;;;;;;;;;5017566;28;20436;-72
2021/09/10 08:25:03;;;;;;;8.60;6.38;;;;;;;;;;5017418;28;20054;-69
2021/09/10 08:27:30;;;;;;;8.45;6.45;;;;;;;;;;5016677;28;20100;-73
2021/09/10 08:29:57;;;;;;;8.35;6.55;;;;;;;;;;5016875;28;20100;-73
2021/09/10 08:32:24;;;;;;;8.98;6.22;;;;;;;;;;5020821;28;20061;-74
2021/09/10 08:34:51;;;;;;;7.80;6.47;;;;;;;;;;5016885;28;20116;-73
2021/09/10 08:37:18;;;;;;;8.75;5.55;;;;;;;;;;5015941;28;20050;-72
2021/09/10 08:39:45;;;;;;;7.97;6.38;;;;;;;;;;5021723;28;20099;-72
2021/09/10 08:42:11;;;;;;;8.25;5.80;;;;;;;;;;5007821;28;20053;-71
2021/09/10 08:44:39;;;;;;;8.20;5.88;;;;;;;;;;5023911;28;20057;-71
2021/09/10 08:47:05;;;;;;;7.55;6.13;;;;;;;;;;5005477;28;20060;-71
2021/09/10 08:49:35;;;;;;;7.30;5.25;;;;;;;;;;5024371;28;20068;-71
2021/09/10 08:54:33;;;;;;;7.97;5.97;;;;;;;;;;5002701;28;20092;-66
2021/09/10 08:57:00;;;;;;;7.10;5.25;;;;;;;;;;5000271;28;20046;-67
2021/09/10 08:59:26;;;;;;;5.70;5.07;;;;;;;;;;5001944;28;20046;-66
2021/09/10 09:01:58;;;;;;;6.93;5.03;;;;;;;;;;4982348;28;20108;-66
2021/09/10 09:04:30;;;;;;;9.15;5.40;;;;;;;;;;5001430;28;20052;-66
2021/09/10 09:06:57;;;;;;;10.45;5.60;;;;;;;;;;5001261;28;20054;-70
2021/09/10 09:09:52;;;;;;;9.88;5.13;;;;;;;;;;4999421;28;20046;-65
2021/09/10 09:12:29;;;;;;;10.57;5.70;;;;;;;;;;4981404;28;20073;-66
2021/09/10 09:14:56;;;;;;;5.47;4.97;;;;;;;;;;5000708;28;20820;-66
2021/09/10 09:17:25;;;;;;;6.93;5.28;;;;;;;;;;5001881;28;20108;-66
2021/09/10 09:20:14;;;;;;;5.70;4.55;;;;;;;;;;5001460;28;20057;-67
2021/09/10 09:23:01;;;;;;;7.22;4.82;;;;;;;;;;5003180;28;20515;-67
2021/09/10 09:25:29;;;;;;;4.95;4.55;;;;;;;;;;5004287;28;20464;-66
2021/09/10 09:27:57;;;;;;;5.80;4.65;;;;;;;;;;4998621;28;20113;-65
2021/09/10 09:30:34;;;;;;;6.63;5.30;;;;;;;;;;4985649;28;20038;-66
2021/09/10 09:33:01;;;;;;;6.03;5.03;;;;;;;;;;5000319;28;20145;-66
2021/09/10 09:35:34;;;;;;;7.60;5.30;;;;;;;;;;5000470;28;20501;-65
2021/09/10 09:38:11;;;;;;;6.40;4.88;;;;;;;;;;5002492;28;20046;-66
2021/09/10 09:40:37;;;;;;;6.47;5.30;;;;;;;;;;4998825;28;20563;-66
2021/09/10 09:43:13;;;;;;;8.88;5.18;;;;;;;;;;5000098;28;20058;-66
2021/09/10 09:45:40;;;;;;;6.18;4.90;;;;;;;;;;5000828;28;20068;-67
2021/09/10 09:48:11;;;;;;;9.93;5.68;;;;;;;;;;4999973;28;20046;-67
2021/09/10 09:50:39;;;;;;;6.28;5.00;;;;;;;;;;5001435;28;20058;-68
2021/09/10 09:53:06;;;;;;;11.90;5.38;;;;;;;;;;4999241;28;20054;-68
2021/09/10 09:55:33;;;;;;;6.18;5.05;;;;;;;;;;5001539;28;20054;-67
2021/09/10 09:58:04;;;;;;;5.20;4.72;;;;;;;;;;5001119;28;20057;-67
2021/09/10 10:00:36;;;;;;;8.15;5.47;;;;;;;;;;4999866;28;20046;-66
2021/09/10 10:03:03;;;;;;;8.25;5.47;;;;;;;;;;5000412;28;20042;-66
2021/09/10 10:05:51;;;;;;;8.40;5.47;;;;;;;;;;4999397;28;20057;-66
2021/09/10 10:08:21;;;;;;;7.97;5.63;;;;;;;;;;5001319;28;20096;-66
2021/09/10 10:10:50;;;;;;;7.50;6.00;;;;;;;;;;4966957;28;20046;-68
2021/09/10 10:13:25;;;;;;;6.78;5.65;;;;;;;;;;4962173;28;20497;-67
2021/09/10 10:15:52;;;;;;;7.13;6.25;;;;;;;;;;5000616;28;20382;-66
2021/09/10 10:18:47;;;;;;;7.47;5.13;;;;;;;;;;5000010;28;20054;-67
2021/09/10 10:21:14;;;;;;;6.78;5.60;;;;;;;;;;4996676;28;20050;-66
2021/09/10 10:23:46;;;;;;;6.07;5.57;;;;;;;;;;4997975;28;20047;-67
2021/09/10 10:26:34;;;;;;;6.47;4.77;;;;;;;;;;5000909;28;20449;-67
2021/09/10 10:29:12;;;;;;;6.38;5.15;;;;;;;;;;4997415;28;20308;-67
2021/09/10 10:32:06;;;;;;;5.57;4.80;;;;;;;;;;4998500;28;20093;-68
2021/09/10 10:34:35;;;;;;;6.35;4.93;;;;;;;;;;4997593;28;20046;-68
2021/09/10 10:37:27;;;;;;;6.25;5.65;;;;;;;;;;5000663;28;20050;-67
2021/09/10 10:40:23;;;;;;;5.22;4.63;;;;;;;;;;4989420;28;20072;-68
2021/09/10 10:43:06;;;;;;;7.50;6.22;;;;;;;;;;5001177;28;20480;-67
2021/09/10 10:45:41;;;;;;;6.40;4.97;;;;;;;;;;4999550;28;20050;-68
2021/09/10 10:48:32;;;;;;;7.88;5.57;;;;;;;;;;4995258;28;20054;-68
2021/09/10 10:51:13;;;;;;;;;;;;;;;;;;4994775;28;20515;-68
2021/09/10 10:53:48;;;;;;;7.40;5.47;;;;;;;;;;4999675;28;19926;-68
2021/09/10 10:56:39;;;;;;;5.72;4.82;;;;;;;;;;4999981;28;20113;-69
2021/09/10 10:59:12;;;;;;;5.70;5.18;;;;;;;;;;4994563;28;20063;-67
2021/09/10 11:02:17;;;;;;;6.13;5.53;;;;;;;;;;4999750;28;20425;-68
2021/09/10 11:04:45;;;;;;;6.85;5.32;;;;;;;;;;4998323;28;20501;-69
2021/09/10 11:07:12;;;;;;;5.82;5.22;;;;;;;;;;4998080;28;20551;-68
2021/09/10 11:09:39;;;;;;;6.18;5.13;;;;;;;;;;4981723;28;20066;-66
2021/09/10 11:12:06;;;;;;;7.13;5.57;;;;;;;;;;4998850;28;20061;-66
2021/09/10 11:14:34;;;;;;;5.95;5.10;;;;;;;;;;4999107;28;20054;-66
2021/09/10 11:17:11;;;;;;;5.85;5.30;;;;;;;;;;4999627;28;20053;-66
2021/09/10 11:19:38;;;;;;;5.35;4.85;;;;;;;;;;4999227;28;20050;-66
2021/09/10 11:22:04;;;;;;;6.55;5.20;;;;;;;;;;4997724;28;20069;-67
2021/09/10 11:24:31;;;;;;;7.30;5.22;;;;;;;;;;4999719;28;20100;-66
2021/09/10 11:26:58;;;;;;;6.65;4.88;;;;;;;;;;4997630;28;20128;-68
2021/09/10 11:29:24;;;;;;;6.35;5.60;;;;;;;;;;4980456;28;20104;-66
2021/09/10 11:31:51;;;;;;;6.50;4.93;;;;;;;;;;4979313;28;20120;-66
2021/09/10 11:34:33;;;;;;;5.70;5.20;;;;;;;;;;4991236;28;20104;-67
2021/09/10 11:37:02;;;;;;;6.47;5.30;;;;;;;;;;4992570;28;20046;-66
2021/09/10 11:39:30;;;;;;;5.32;4.68;;;;;;;;;;4992568;28;20539;-66
2021/09/10 11:41:57;;;;;;;6.63;5.18;;;;;;;;;;4992595;28;20101;-67
2021/09/10 11:44:26;;;;;;;6.18;5.57;;;;;;;;;;4990097;28;20144;-66
2021/09/10 11:46:52;;;;;;;5.30;4.80;;;;;;;;;;4980131;28;20050;-66
2021/09/10 11:49:20;;;;;;;5.22;4.72;;;;;;;;;;4975016;28;20053;-67
2021/09/10 11:51:48;;;;;;;6.93;5.50;;;;;;;;;;4981355;28;20414;-66
2021/09/10 11:54:16;;;;;;;6.05;5.13;;;;;;;;;;4981392;28;20089;-67
2021/09/10 11:56:45;;;;;;;5.80;5.20;;;;;;;;;;4974026;28;20050;-66
2021/09/10 11:59:28;;;;;;;5.47;4.93;;;;;;;;;;4982743;28;20137;-66
2021/09/10 12:01:54;;;;;;;4.95;4.45;;;;;;;;;;4987038;28;20042;-66
2021/09/10 12:04:30;;;;;;;5.47;4.97;;;;;;;;;;4972682;28;20050;-66
2021/09/10 12:06:58;;;;;;;6.13;5.15;;;;;;;;;;4985306;28;20046;-68
2021/09/10 12:09:32;;;;;;;6.05;5.43;;;;;;;;;;4992391;28;20417;-67
2021/09/10 12:12:13;;;;;;;7.13;4.65;;;;;;;;;;4992239;28;20493;-66
2021/09/10 12:14:53;;;;;;;5.53;5.00;;;;;;;;;;4991783;28;20065;-66
2021/09/10 12:17:28;;;;;;;6.28;5.00;;;;;;;;;;4992448;28;20046;-66
2021/09/10 12:20:08;;;;;;;5.15;4.68;;;;;;;;;;4991894;28;20595;-66
2021/09/10 12:22:42;;;;;;;6.13;5.32;;;;;;;;;;4991942;28;20050;-67
2021/09/10 12:25:20;;;;;;;6.53;5.03;;;;;;;;;;4992367;28;20058;-66
2021/09/10 12:27:51;;;;;;;5.22;4.72;;;;;;;;;;4992194;28;20121;-67
2021/09/10 12:30:20;;;;;;;5.10;4.63;;;;;;;;;;4992258;28;20539;-66
2021/09/10 12:32:47;;;;;;;6.57;4.57;;;;;;;;;;4991882;28;20058;-66
2021/09/10 12:35:13;;;;;;;4.47;4.07;;;;;;;;;;4979530;28;20105;-66
2021/09/10 12:37:40;;;;;;;5.60;5.05;;;;;;;;;;4990916;28;20050;-67
2021/09/10 12:40:07;;;;;;;4.97;4.30;;;;;;;;;;4992185;28;20467;-66
2021/09/10 12:42:34;;;;;;;5.90;4.43;;;;;;;;;;4991733;28;20054;-67
2021/09/10 12:45:00;;;;;;;5.03;4.25;;;;;;;;;;4974598;28;20050;-67
2021/09/10 12:47:27;;;;;;;5.90;4.85;;;;;;;;;;4984838;28;20112;-67
2021/09/10 12:49:54;;;;;;;6.53;4.40;;;;;;;;;;4991471;28;20050;-66
2021/09/10 12:52:20;;;;;;;5.40;4.90;;;;;;;;;;4991488;28;20458;-66
2021/09/10 12:54:47;;;;;;;5.63;5.03;;;;;;;;;;4989867;28;20054;-66
2021/09/10 12:57:13;;;;;;;6.97;4.70;;;;;;;;;;4980931;28;20047;-66
2021/09/10 12:59:40;;;;;;;4.75;4.35;;;;;;;;;;4989545;28;20097;-67
2021/09/10 13:02:12;;;;;;;5.57;5.07;;;;;;;;;;4991592;28;20453;-67
2021/09/10 13:04:39;;;;;;;;;;;;;;;;;;4977732;28;20057;-69
2021/09/10 13:07:06;;;;;;;6.07;5.47;;;;;;;;;;4992909;28;19929;-67
2021/09/10 13:09:34;;;;;;;5.53;4.78;;;;;;;;;;4997142;28;20505;-68
2021/09/10 13:12:01;;;;;;;6.25;5.45;;;;;;;;;;4997178;28;20555;-69
2021/09/10 13:14:27;;;;;;;5.63;5.00;;;;;;;;;;4997083;28;20460;-68
2021/09/10 13:16:54;;;;;;;6.20;4.85;;;;;;;;;;5001258;28;20054;-68
2021/09/10 13:19:21;;;;;;;5.97;5.00;;;;;;;;;;4999686;28;20046;-67
2021/09/10 13:21:47;;;;;;;5.60;5.05;;;;;;;;;;5004434;28;20046;-67
2021/09/10 13:24:18;;;;;;;5.90;5.35;;;;;;;;;;4999465;28;20105;-65
2021/09/10 13:26:49;;;;;;;6.53;5.30;;;;;;;;;;5001296;28;20104;-67
2021/09/10 13:29:15;;;;;;;5.63;4.95;;;;;;;;;;5000577;28;20054;-67
2021/09/10 13:31:43;;;;;;;7.28;5.05;;;;;;;;;;5001589;28;20050;-67
2021/09/10 13:34:10;;;;;;;5.43;4.93;;;;;;;;;;5000402;28;20093;-67
2021/09/10 13:36:37;;;;;;;6.28;5.22;;;;;;;;;;5000604;28;20050;-67
2021/09/10 13:39:04;;;;;;;5.70;5.18;;;;;;;;;;5001095;28;20081;-67
2021/09/10 13:41:30;;;;;;;6.13;4.95;;;;;;;;;;4983161;28;20461;-67
2021/09/10 13:43:57;;;;;;;5.60;5.10;;;;;;;;;;5001115;28;20045;-67
2021/09/10 13:46:24;;;;;;;5.35;4.85;;;;;;;;;;5000159;28;20093;-68
2021/09/10 13:48:50;;;;;;;7.28;5.43;;;;;;;;;;5001854;28;20042;-67
2021/09/10 13:51:17;;;;;;;7.35;6.35;;;;;;;;;;4997343;28;20046;-67
2021/09/10 13:53:43;;;;;;;5.63;5.03;;;;;;;;;;4996887;28;20097;-68
2021/09/10 13:56:10;;;;;;;8.18;5.30;;;;;;;;;;4999557;28;20050;-67
2021/09/10 13:58:37;;;;;;;8.15;5.15;;;;;;;;;;5004620;28;20092;-67
2021/09/10 14:01:04;;;;;;;6.07;5.07;;;;;;;;;;4999823;28;20465;-67
2021/09/10 14:03:31;;;;;;;4.97;4.50;;;;;;;;;;5003200;28;20287;-67
2021/09/10 14:05:58;;;;;;;6.63;5.40;;;;;;;;;;5000693;28;20085;-69
2021/09/10 14:08:25;;;;;;;7.93;5.32;;;;;;;;;;5001398;28;20508;-68
2021/09/10 14:10:52;;;;;;;5.97;5.30;;;;;;;;;;4999271;28;20517;-68
2021/09/10 14:13:18;;;;;;;6.53;5.25;;;;;;;;;;5000641;28;20041;-66
2021/09/10 14:15:45;;;;;;;6.80;5.38;;;;;;;;;;5000065;28;20058;-66
2021/09/10 14:18:12;;;;;;;6.88;5.30;;;;;;;;;;5000059;28;20046;-66
2021/09/10 14:20:38;;;;;;;7.72;5.50;;;;;;;;;;5000169;28;20065;-66
2021/09/10 14:23:05;;;;;;;6.13;5.45;;;;;;;;;;4999405;28;20084;-66
2021/09/10 14:25:32;;;;;;;7.45;5.90;;;;;;;;;;5000838;28;20057;-66
2021/09/10 14:27:58;;;;;;;6.45;5.70;;;;;;;;;;4999884;28;20496;-75
2021/09/10 14:30:25;;;;;;;6.65;5.85;;;;;;;;;;4999842;28;20054;-70
2021/09/10 14:32:52;;;;;;;8.05;5.78;;;;;;;;;;4999479;28;20520;-71
2021/09/10 14:35:19;;;;;;;9.05;5.70;;;;;;;;;;5001844;28;20072;-67
2021/09/10 14:37:45;;;;;;;7.78;5.50;;;;;;;;;;4997037;28;20050;-67
2021/09/10 14:40:16;;;;;;;6.30;5.00;;;;;;;;;;5005910;28;20056;-70
2021/09/10 14:42:45;;;;;;;5.43;4.75;;;;;;;;;;4981638;28;20417;-70
2021/09/10 14:45:13;;;;;;;7.22;5.82;;;;;;;;;;4999358;28;20042;-72